sensor_id;sensor_type;location;lat;lon;timestamp;temperature;humidity
318;DHT22;146;53.448;10.228;2023-06-26T00:00:11;21.60;1.00
318;DHT22;146;53.448;10.228;2023-06-26T00:02:41;21.50;1.00
318;DHT22;146;53.448;10.228;2023-06-26T00:05:10;21.50;1.00
318;DHT22;146;53.448;10.228;2023-06-26T00:07:37;21.50;1.00
318;DHT22;146;53.448;10.228;2023-06-26T00:10:05;21.50;1.00
318;DHT22;146;53.448;10.228;2023-06-26T00:12:35;21.50;1.00
318;DHT22;146;53.448;10.228;2023-06-26T00:15:06;21.50;1.00
318;DHT22;146;53.448;10.228;2023-06-26T00:17:34;21.40;1.00
318;DHT22;146;53.448;10.228;2023-06-26T00:20:03;21.40;1.00
318;DHT22;146;53.448;10.228;2023-06-26T00:22:30;21.40;1.00
318;DHT22;146;53.448;10.228;2023-06-26T00:24:57;21.30;1.00
318;DHT22;146;53.448;10.228;2023-06-26T00:27:31;21.30;1.00
318;DHT22;146;53.448;10.228;2023-06-26T00:30:13;21.30;1.00
318;DHT22;146;53.448;10.228;2023-06-26T00:32:43;21.30;1.00
318;DHT22;146;53.448;10.228;2023-06-26T00:35:11;21.30;1.00
318;DHT22;146;53.448;10.228;2023-06-26T00:37:41;21.30;1.00
318;DHT22;146;53.448;10.228;2023-06-26T00:40:14;21.20;1.00
318;DHT22;146;53.448;10.228;2023-06-26T00:42:47;21.20;1.00
318;DHT22;146;53.448;10.228;2023-06-26T00:45:27;21.20;1.00
318;DHT22;146;53.448;10.228;2023-06-26T00:47:57;21.10;1.00
318;DHT22;146;53.448;10.228;2023-06-26T00:50:24;21.10;1.00
318;DHT22;146;53.448;10.228;2023-06-26T00:52:58;21.10;1.00
318;DHT22;146;53.448;10.228;2023-06-26T00:55:32;21.10;1.00
318;DHT22;146;53.448;10.228;2023-06-26T00:58:05;21.00;1.00
318;DHT22;146;53.448;10.228;2023-06-26T01:00:33;21.00;1.00
318;DHT22;146;53.448;10.228;2023-06-26T01:03:00;21.00;1.00
318;DHT22;146;53.448;10.228;2023-06-26T01:05:27;21.00;1.00
318;DHT22;146;53.448;10.228;2023-06-26T01:07:55;20.90;1.00
318;DHT22;146;53.448;10.228;2023-06-26T01:10:32;20.90;1.00
318;DHT22;146;53.448;10.228;2023-06-26T01:13:05;20.90;1.00
318;DHT22;146;53.448;10.228;2023-06-26T01:15:33;20.80;1.00
318;DHT22;146;53.448;10.228;2023-06-26T01:18:13;20.80;1.00
318;DHT22;146;53.448;10.228;2023-06-26T01:20:41;20.70;1.00
318;DHT22;146;53.448;10.228;2023-06-26T01:23:15;20.70;1.00
318;DHT22;146;53.448;10.228;2023-06-26T01:28:32;20.60;1.00
318;DHT22;146;53.448;10.228;2023-06-26T01:31:02;20.60;1.00
318;DHT22;146;53.448;10.228;2023-06-26T01:33:33;20.60;1.00
318;DHT22;146;53.448;10.228;2023-06-26T01:36:00;20.60;1.00
318;DHT22;146;53.448;10.228;2023-06-26T01:38:29;20.60;1.00
318;DHT22;146;53.448;10.228;2023-06-26T01:41:10;20.50;1.00
318;DHT22;146;53.448;10.228;2023-06-26T01:43:49;20.50;1.00
318;DHT22;146;53.448;10.228;2023-06-26T01:46:24;20.50;1.00
318;DHT22;146;53.448;10.228;2023-06-26T01:49:02;20.50;1.00
318;DHT22;146;53.448;10.228;2023-06-26T01:51:37;20.50;1.00
318;DHT22;146;53.448;10.228;2023-06-26T01:54:13;20.50;1.00
318;DHT22;146;53.448;10.228;2023-06-26T01:56:45;20.40;1.00
318;DHT22;146;53.448;10.228;2023-06-26T01:59:14;20.40;1.00
318;DHT22;146;53.448;10.228;2023-06-26T02:01:44;20.40;1.00
318;DHT22;146;53.448;10.228;2023-06-26T02:04:13;20.40;1.00
318;DHT22;146;53.448;10.228;2023-06-26T02:06:42;20.40;1.00
318;DHT22;146;53.448;10.228;2023-06-26T02:09:18;20.30;1.00
318;DHT22;146;53.448;10.228;2023-06-26T02:11:48;20.30;1.00
318;DHT22;146;53.448;10.228;2023-06-26T02:14:19;20.30;1.00
318;DHT22;146;53.448;10.228;2023-06-26T02:16:51;20.30;1.00
318;DHT22;146;53.448;10.228;2023-06-26T02:19:18;20.20;1.00
318;DHT22;146;53.448;10.228;2023-06-26T02:21:47;20.30;1.00
318;DHT22;146;53.448;10.228;2023-06-26T02:24:14;20.30;1.00
318;DHT22;146;53.448;10.228;2023-06-26T02:26:44;20.20;1.00
318;DHT22;146;53.448;10.228;2023-06-26T02:29:14;20.20;1.00
318;DHT22;146;53.448;10.228;2023-06-26T02:31:42;20.20;1.00
318;DHT22;146;53.448;10.228;2023-06-26T02:34:09;20.20;1.00
318;DHT22;146;53.448;10.228;2023-06-26T02:36:42;20.20;1.00
318;DHT22;146;53.448;10.228;2023-06-26T02:39:09;20.20;1.00
318;DHT22;146;53.448;10.228;2023-06-26T02:41:42;20.20;1.00
318;DHT22;146;53.448;10.228;2023-06-26T02:44:09;20.20;1.00
318;DHT22;146;53.448;10.228;2023-06-26T02:46:41;20.20;1.00
318;DHT22;146;53.448;10.228;2023-06-26T02:49:11;20.10;1.00
318;DHT22;146;53.448;10.228;2023-06-26T02:51:41;20.20;1.00
318;DHT22;146;53.448;10.228;2023-06-26T02:54:08;20.20;1.00
318;DHT22;146;53.448;10.228;2023-06-26T02:56:35;20.20;1.00
318;DHT22;146;53.448;10.228;2023-06-26T02:59:02;20.10;1.00
318;DHT22;146;53.448;10.228;2023-06-26T03:01:28;20.10;1.00
318;DHT22;146;53.448;10.228;2023-06-26T03:03:58;20.10;1.00
318;DHT22;146;53.448;10.228;2023-06-26T03:06:26;20.10;1.00
318;DHT22;146;53.448;10.228;2023-06-26T03:08:55;20.10;1.00
318;DHT22;146;53.448;10.228;2023-06-26T03:11:25;20.10;1.00
318;DHT22;146;53.448;10.228;2023-06-26T03:13:58;20.10;1.00
318;DHT22;146;53.448;10.228;2023-06-26T03:16:24;20.10;1.00
318;DHT22;146;53.448;10.228;2023-06-26T03:18:51;20.10;1.00
318;DHT22;146;53.448;10.228;2023-06-26T03:21:22;20.10;1.00
318;DHT22;146;53.448;10.228;2023-06-26T03:23:52;20.10;1.00
318;DHT22;146;53.448;10.228;2023-06-26T03:26:24;20.10;1.00
318;DHT22;146;53.448;10.228;2023-06-26T03:28:53;20.00;1.00
318;DHT22;146;53.448;10.228;2023-06-26T03:31:23;20.00;1.00
318;DHT22;146;53.448;10.228;2023-06-26T03:33:53;20.00;1.00
318;DHT22;146;53.448;10.228;2023-06-26T03:36:27;20.00;1.00
318;DHT22;146;53.448;10.228;2023-06-26T03:38:54;20.00;1.00
318;DHT22;146;53.448;10.228;2023-06-26T03:41:25;20.00;1.00
318;DHT22;146;53.448;10.228;2023-06-26T03:43:52;20.00;1.00
318;DHT22;146;53.448;10.228;2023-06-26T03:46:31;20.00;1.00
318;DHT22;146;53.448;10.228;2023-06-26T03:49:00;20.00;1.00
318;DHT22;146;53.448;10.228;2023-06-26T03:51:31;20.10;1.00
318;DHT22;146;53.448;10.228;2023-06-26T03:53:58;20.10;1.00
318;DHT22;146;53.448;10.228;2023-06-26T03:56:27;20.00;1.00
318;DHT22;146;53.448;10.228;2023-06-26T03:58:57;20.10;1.00
318;DHT22;146;53.448;10.228;2023-06-26T04:01:27;20.10;1.00
318;DHT22;146;53.448;10.228;2023-06-26T04:03:54;20.10;1.00
318;DHT22;146;53.448;10.228;2023-06-26T04:06:24;20.10;1.00
318;DHT22;146;53.448;10.228;2023-06-26T04:08:52;20.10;1.00
318;DHT22;146;53.448;10.228;2023-06-26T04:11:19;20.20;1.00
318;DHT22;146;53.448;10.228;2023-06-26T04:13:45;20.20;1.00
318;DHT22;146;53.448;10.228;2023-06-26T04:16:12;20.20;1.00
318;DHT22;146;53.448;10.228;2023-06-26T04:18:45;20.20;1.00
318;DHT22;146;53.448;10.228;2023-06-26T04:21:12;20.10;1.00
318;DHT22;146;53.448;10.228;2023-06-26T04:23:45;20.20;1.00
318;DHT22;146;53.448;10.228;2023-06-26T04:26:17;20.20;1.00
318;DHT22;146;53.448;10.228;2023-06-26T04:28:44;20.20;1.00
318;DHT22;146;53.448;10.228;2023-06-26T04:31:23;20.20;1.00
318;DHT22;146;53.448;10.228;2023-06-26T04:33:52;20.30;1.00
318;DHT22;146;53.448;10.228;2023-06-26T04:36:20;20.30;1.00
318;DHT22;146;53.448;10.228;2023-06-26T04:38:53;20.40;1.00
318;DHT22;146;53.448;10.228;2023-06-26T04:41:29;20.40;1.00
318;DHT22;146;53.448;10.228;2023-06-26T04:43:56;20.40;1.00
318;DHT22;146;53.448;10.228;2023-06-26T04:46:29;20.40;1.00
318;DHT22;146;53.448;10.228;2023-06-26T04:48:56;20.50;1.00
318;DHT22;146;53.448;10.228;2023-06-26T04:51:23;20.50;1.00
318;DHT22;146;53.448;10.228;2023-06-26T04:53:56;20.50;1.00
318;DHT22;146;53.448;10.228;2023-06-26T04:56:27;20.50;1.00
318;DHT22;146;53.448;10.228;2023-06-26T04:58:59;20.50;1.00
318;DHT22;146;53.448;10.228;2023-06-26T05:01:26;20.50;1.00
318;DHT22;146;53.448;10.228;2023-06-26T05:03:58;20.60;1.00
318;DHT22;146;53.448;10.228;2023-06-26T05:06:25;20.60;1.00
318;DHT22;146;53.448;10.228;2023-06-26T05:08:55;20.60;1.00
318;DHT22;146;53.448;10.228;2023-06-26T05:11:29;20.70;1.00
318;DHT22;146;53.448;10.228;2023-06-26T05:14:02;20.70;1.00
318;DHT22;146;53.448;10.228;2023-06-26T05:16:32;20.70;1.00
318;DHT22;146;53.448;10.228;2023-06-26T05:18:59;20.80;1.00
318;DHT22;146;53.448;10.228;2023-06-26T05:21:26;20.80;1.00
318;DHT22;146;53.448;10.228;2023-06-26T05:23:56;20.80;1.00
318;DHT22;146;53.448;10.228;2023-06-26T05:26:26;20.80;1.00
318;DHT22;146;53.448;10.228;2023-06-26T05:28:55;20.90;1.00
318;DHT22;146;53.448;10.228;2023-06-26T05:31:28;20.90;1.00
318;DHT22;146;53.448;10.228;2023-06-26T05:33:58;20.90;1.00
318;DHT22;146;53.448;10.228;2023-06-26T05:36:47;21.00;1.00
318;DHT22;146;53.448;10.228;2023-06-26T05:39:43;21.00;1.00
318;DHT22;146;53.448;10.228;2023-06-26T05:42:39;21.10;1.00
318;DHT22;146;53.448;10.228;2023-06-26T05:45:48;21.10;1.00
318;DHT22;146;53.448;10.228;2023-06-26T05:48:15;21.20;1.00
318;DHT22;146;53.448;10.228;2023-06-26T05:50:42;21.20;1.00
318;DHT22;146;53.448;10.228;2023-06-26T05:53:14;21.30;1.00
318;DHT22;146;53.448;10.228;2023-06-26T05:55:47;21.30;1.00
318;DHT22;146;53.448;10.228;2023-06-26T05:58:14;21.30;1.00
318;DHT22;146;53.448;10.228;2023-06-26T06:00:43;21.40;1.00
318;DHT22;146;53.448;10.228;2023-06-26T06:03:12;21.40;1.00
318;DHT22;146;53.448;10.228;2023-06-26T06:05:38;21.50;1.00
318;DHT22;146;53.448;10.228;2023-06-26T06:08:05;21.50;1.00
318;DHT22;146;53.448;10.228;2023-06-26T06:10:41;21.60;1.00
318;DHT22;146;53.448;10.228;2023-06-26T06:13:10;21.60;1.00
318;DHT22;146;53.448;10.228;2023-06-26T06:15:39;21.70;1.00
318;DHT22;146;53.448;10.228;2023-06-26T06:18:06;21.80;1.00
318;DHT22;146;53.448;10.228;2023-06-26T06:20:35;21.80;1.00
318;DHT22;146;53.448;10.228;2023-06-26T06:23:02;21.90;1.00
318;DHT22;146;53.448;10.228;2023-06-26T06:25:34;22.00;1.00
318;DHT22;146;53.448;10.228;2023-06-26T06:28:01;22.00;1.00
318;DHT22;146;53.448;10.228;2023-06-26T06:30:28;22.10;1.00
318;DHT22;146;53.448;10.228;2023-06-26T06:32:55;22.20;1.00
318;DHT22;146;53.448;10.228;2023-06-26T06:35:22;22.30;1.00
318;DHT22;146;53.448;10.228;2023-06-26T06:37:52;22.30;1.00
318;DHT22;146;53.448;10.228;2023-06-26T06:40:22;22.40;1.00
318;DHT22;146;53.448;10.228;2023-06-26T06:42:56;22.40;1.00
318;DHT22;146;53.448;10.228;2023-06-26T06:45:26;22.50;1.00
318;DHT22;146;53.448;10.228;2023-06-26T06:47:55;22.50;1.00
318;DHT22;146;53.448;10.228;2023-06-26T06:50:23;22.60;1.00
318;DHT22;146;53.448;10.228;2023-06-26T06:52:51;22.60;1.00
318;DHT22;146;53.448;10.228;2023-06-26T06:55:25;22.70;1.00
318;DHT22;146;53.448;10.228;2023-06-26T06:57:55;22.80;1.00
318;DHT22;146;53.448;10.228;2023-06-26T07:00:25;22.80;1.00
318;DHT22;146;53.448;10.228;2023-06-26T07:02:53;22.90;1.00
318;DHT22;146;53.448;10.228;2023-06-26T07:05:22;22.90;1.00
318;DHT22;146;53.448;10.228;2023-06-26T07:07:51;23.00;1.00
318;DHT22;146;53.448;10.228;2023-06-26T07:10:25;23.10;1.00
318;DHT22;146;53.448;10.228;2023-06-26T07:12:54;23.20;1.00
318;DHT22;146;53.448;10.228;2023-06-26T07:15:21;23.30;1.00
318;DHT22;146;53.448;10.228;2023-06-26T07:17:48;23.30;1.00
318;DHT22;146;53.448;10.228;2023-06-26T07:20:15;23.30;1.00
318;DHT22;146;53.448;10.228;2023-06-26T07:22:43;23.40;1.00
318;DHT22;146;53.448;10.228;2023-06-26T07:25:15;23.60;1.00
318;DHT22;146;53.448;10.228;2023-06-26T07:27:50;23.60;1.00
318;DHT22;146;53.448;10.228;2023-06-26T07:30:17;23.70;1.00
318;DHT22;146;53.448;10.228;2023-06-26T07:32:47;23.70;1.00
318;DHT22;146;53.448;10.228;2023-06-26T07:35:14;23.80;1.00
318;DHT22;146;53.448;10.228;2023-06-26T07:37:44;23.80;1.00
318;DHT22;146;53.448;10.228;2023-06-26T07:40:11;23.90;1.00
318;DHT22;146;53.448;10.228;2023-06-26T07:42:39;24.00;1.00
318;DHT22;146;53.448;10.228;2023-06-26T07:45:17;24.00;1.00
318;DHT22;146;53.448;10.228;2023-06-26T07:47:44;24.20;1.00
318;DHT22;146;53.448;10.228;2023-06-26T07:50:14;24.20;1.00
318;DHT22;146;53.448;10.228;2023-06-26T07:52:45;24.40;1.00
318;DHT22;146;53.448;10.228;2023-06-26T07:55:11;24.50;1.00
318;DHT22;146;53.448;10.228;2023-06-26T07:57:44;24.60;1.00
318;DHT22;146;53.448;10.228;2023-06-26T08:00:11;24.70;1.00
318;DHT22;146;53.448;10.228;2023-06-26T08:02:38;24.80;1.00
318;DHT22;146;53.448;10.228;2023-06-26T08:05:05;24.90;1.00
318;DHT22;146;53.448;10.228;2023-06-26T08:07:32;25.00;1.00
318;DHT22;146;53.448;10.228;2023-06-26T08:10:13;25.20;1.00
318;DHT22;146;53.448;10.228;2023-06-26T08:12:52;25.40;1.00
318;DHT22;146;53.448;10.228;2023-06-26T08:15:28;25.50;1.00
318;DHT22;146;53.448;10.228;2023-06-26T08:18:11;25.80;1.00
318;DHT22;146;53.448;10.228;2023-06-26T08:20:38;25.90;1.00
318;DHT22;146;53.448;10.228;2023-06-26T08:23:20;26.00;1.00
318;DHT22;146;53.448;10.228;2023-06-26T08:25:51;26.10;1.00
318;DHT22;146;53.448;10.228;2023-06-26T08:28:26;26.10;1.00
318;DHT22;146;53.448;10.228;2023-06-26T08:31:03;26.00;1.00
318;DHT22;146;53.448;10.228;2023-06-26T08:33:38;26.00;1.00
318;DHT22;146;53.448;10.228;2023-06-26T08:36:08;26.00;1.00
318;DHT22;146;53.448;10.228;2023-06-26T08:38:42;26.10;1.00
318;DHT22;146;53.448;10.228;2023-06-26T08:41:11;26.20;1.00
318;DHT22;146;53.448;10.228;2023-06-26T08:43:46;26.30;1.00
318;DHT22;146;53.448;10.228;2023-06-26T08:46:19;26.30;1.00
318;DHT22;146;53.448;10.228;2023-06-26T08:48:55;26.40;1.00
318;DHT22;146;53.448;10.228;2023-06-26T08:51:25;26.50;1.00
318;DHT22;146;53.448;10.228;2023-06-26T08:53:57;26.70;1.00
318;DHT22;146;53.448;10.228;2023-06-26T08:56:31;26.80;1.00
318;DHT22;146;53.448;10.228;2023-06-26T08:59:03;26.90;1.00
318;DHT22;146;53.448;10.228;2023-06-26T09:01:31;26.90;1.00
318;DHT22;146;53.448;10.228;2023-06-26T09:04:04;27.00;1.00
318;DHT22;146;53.448;10.228;2023-06-26T09:06:31;27.10;1.00
318;DHT22;146;53.448;10.228;2023-06-26T09:09:04;27.30;1.00
318;DHT22;146;53.448;10.228;2023-06-26T09:11:38;27.30;1.00
318;DHT22;146;53.448;10.228;2023-06-26T09:14:06;27.30;1.00
318;DHT22;146;53.448;10.228;2023-06-26T09:16:39;27.30;1.00
318;DHT22;146;53.448;10.228;2023-06-26T09:19:09;27.30;1.00
318;DHT22;146;53.448;10.228;2023-06-26T09:21:38;27.40;1.00
318;DHT22;146;53.448;10.228;2023-06-26T09:24:06;27.40;1.00
318;DHT22;146;53.448;10.228;2023-06-26T09:26:37;27.50;1.00
318;DHT22;146;53.448;10.228;2023-06-26T09:29:06;27.50;1.00
318;DHT22;146;53.448;10.228;2023-06-26T09:31:40;27.40;1.00
318;DHT22;146;53.448;10.228;2023-06-26T09:34:11;27.40;1.00
318;DHT22;146;53.448;10.228;2023-06-26T09:36:41;27.50;1.00
318;DHT22;146;53.448;10.228;2023-06-26T09:39:12;27.60;1.00
318;DHT22;146;53.448;10.228;2023-06-26T09:41:41;27.60;1.00
318;DHT22;146;53.448;10.228;2023-06-26T09:44:11;27.60;1.00
318;DHT22;146;53.448;10.228;2023-06-26T09:46:39;27.50;1.00
318;DHT22;146;53.448;10.228;2023-06-26T09:49:10;27.40;1.00
318;DHT22;146;53.448;10.228;2023-06-26T09:51:39;27.40;1.00
318;DHT22;146;53.448;10.228;2023-06-26T09:54:07;27.40;1.00
318;DHT22;146;53.448;10.228;2023-06-26T09:56:38;27.50;1.00
318;DHT22;146;53.448;10.228;2023-06-26T09:59:05;27.40;1.00
318;DHT22;146;53.448;10.228;2023-06-26T10:01:41;27.40;1.00
318;DHT22;146;53.448;10.228;2023-06-26T10:04:13;27.20;1.00
318;DHT22;146;53.448;10.228;2023-06-26T10:06:47;27.00;1.00
318;DHT22;146;53.448;10.228;2023-06-26T10:09:24;26.80;1.00
318;DHT22;146;53.448;10.228;2023-06-26T10:12:01;26.50;1.00
318;DHT22;146;53.448;10.228;2023-06-26T10:14:33;26.30;1.00
318;DHT22;146;53.448;10.228;2023-06-26T10:17:15;26.00;1.00
318;DHT22;146;53.448;10.228;2023-06-26T10:19:44;25.90;1.00
318;DHT22;146;53.448;10.228;2023-06-26T10:22:12;25.60;1.00
318;DHT22;146;53.448;10.228;2023-06-26T10:24:44;25.40;1.00
318;DHT22;146;53.448;10.228;2023-06-26T10:27:17;25.20;1.00
318;DHT22;146;53.448;10.228;2023-06-26T10:29:47;25.10;1.00
318;DHT22;146;53.448;10.228;2023-06-26T10:32:20;24.80;1.00
318;DHT22;146;53.448;10.228;2023-06-26T10:34:48;24.60;1.00
318;DHT22;146;53.448;10.228;2023-06-26T10:37:15;24.40;1.00
318;DHT22;146;53.448;10.228;2023-06-26T10:39:49;23.60;1.00
318;DHT22;146;53.448;10.228;2023-06-26T10:42:17;22.70;1.00
318;DHT22;146;53.448;10.228;2023-06-26T10:44:45;22.00;1.00
318;DHT22;146;53.448;10.228;2023-06-26T10:47:30;21.60;1.00
318;DHT22;146;53.448;10.228;2023-06-26T10:50:20;21.20;1.00
318;DHT22;146;53.448;10.228;2023-06-26T10:53:14;20.80;1.00
318;DHT22;146;53.448;10.228;2023-06-26T10:55:49;20.50;1.00
318;DHT22;146;53.448;10.228;2023-06-26T10:58:33;20.40;1.00
318;DHT22;146;53.448;10.228;2023-06-26T11:01:22;20.30;1.00
318;DHT22;146;53.448;10.228;2023-06-26T11:04:13;20.20;1.60
318;DHT22;146;53.448;10.228;2023-06-26T11:06:48;20.10;2.80
318;DHT22;146;53.448;10.228;2023-06-26T11:10:07;20.10;3.60
318;DHT22;146;53.448;10.228;2023-06-26T11:12:44;20.10;4.30
318;DHT22;146;53.448;10.228;2023-06-26T11:15:14;20.10;4.70
318;DHT22;146;53.448;10.228;2023-06-26T11:17:45;20.10;5.30
318;DHT22;146;53.448;10.228;2023-06-26T11:20:18;20.10;6.20
318;DHT22;146;53.448;10.228;2023-06-26T11:22:45;20.30;7.40
318;DHT22;146;53.448;10.228;2023-06-26T11:25:16;20.50;8.60
318;DHT22;146;53.448;10.228;2023-06-26T11:27:43;20.70;9.60
318;DHT22;146;53.448;10.228;2023-06-26T11:30:23;20.90;10.00
318;DHT22;146;53.448;10.228;2023-06-26T11:33:03;21.00;9.50
318;DHT22;146;53.448;10.228;2023-06-26T11:35:31;21.20;9.10
318;DHT22;146;53.448;10.228;2023-06-26T11:37:59;21.50;8.70
318;DHT22;146;53.448;10.228;2023-06-26T11:40:41;21.50;7.00
318;DHT22;146;53.448;10.228;2023-06-26T11:43:30;21.70;6.10
318;DHT22;146;53.448;10.228;2023-06-26T11:46:03;21.70;1.00
318;DHT22;146;53.448;10.228;2023-06-26T11:48:30;21.60;1.00
318;DHT22;146;53.448;10.228;2023-06-26T11:51:12;21.70;1.00
318;DHT22;146;53.448;10.228;2023-06-26T11:53:39;21.70;1.00
318;DHT22;146;53.448;10.228;2023-06-26T11:56:16;21.70;1.00
318;DHT22;146;53.448;10.228;2023-06-26T11:59:04;21.60;1.00
318;DHT22;146;53.448;10.228;2023-06-26T12:01:32;21.60;1.00
318;DHT22;146;53.448;10.228;2023-06-26T12:04:03;21.50;1.00
318;DHT22;146;53.448;10.228;2023-06-26T12:06:33;21.60;1.00
318;DHT22;146;53.448;10.228;2023-06-26T12:09:08;21.70;1.00
318;DHT22;146;53.448;10.228;2023-06-26T12:11:48;21.70;1.00
318;DHT22;146;53.448;10.228;2023-06-26T12:14:20;21.90;1.00
318;DHT22;146;53.448;10.228;2023-06-26T12:16:47;21.80;1.00
318;DHT22;146;53.448;10.228;2023-06-26T12:19:15;22.00;1.00
318;DHT22;146;53.448;10.228;2023-06-26T12:21:48;22.00;1.00
318;DHT22;146;53.448;10.228;2023-06-26T12:24:21;22.10;1.00
318;DHT22;146;53.448;10.228;2023-06-26T12:26:54;22.30;1.00
318;DHT22;146;53.448;10.228;2023-06-26T12:29:30;22.30;1.00
318;DHT22;146;53.448;10.228;2023-06-26T12:32:01;22.30;1.00
318;DHT22;146;53.448;10.228;2023-06-26T12:34:34;22.20;1.00
318;DHT22;146;53.448;10.228;2023-06-26T12:37:04;22.20;1.00
318;DHT22;146;53.448;10.228;2023-06-26T12:39:46;22.10;1.00
318;DHT22;146;53.448;10.228;2023-06-26T12:42:14;22.10;1.00
318;DHT22;146;53.448;10.228;2023-06-26T12:44:54;22.10;1.00
318;DHT22;146;53.448;10.228;2023-06-26T12:47:26;22.00;1.00
318;DHT22;146;53.448;10.228;2023-06-26T12:49:54;22.20;1.00
318;DHT22;146;53.448;10.228;2023-06-26T12:52:23;22.30;1.00
318;DHT22;146;53.448;10.228;2023-06-26T12:54:53;22.40;1.00
318;DHT22;146;53.448;10.228;2023-06-26T12:57:21;22.50;1.00
318;DHT22;146;53.448;10.228;2023-06-26T12:59:57;22.50;1.00
318;DHT22;146;53.448;10.228;2023-06-26T13:02:26;22.50;1.00
318;DHT22;146;53.448;10.228;2023-06-26T13:04:52;22.50;1.00
318;DHT22;146;53.448;10.228;2023-06-26T13:07:19;22.60;1.00
318;DHT22;146;53.448;10.228;2023-06-26T13:09:48;22.60;1.00
318;DHT22;146;53.448;10.228;2023-06-26T13:12:21;22.70;1.00
318;DHT22;146;53.448;10.228;2023-06-26T13:14:53;22.80;1.00
318;DHT22;146;53.448;10.228;2023-06-26T13:17:23;22.80;1.00
318;DHT22;146;53.448;10.228;2023-06-26T13:19:50;22.80;1.00
318;DHT22;146;53.448;10.228;2023-06-26T13:22:17;22.90;1.00
318;DHT22;146;53.448;10.228;2023-06-26T13:24:43;22.90;1.00
318;DHT22;146;53.448;10.228;2023-06-26T13:27:13;23.00;1.00
318;DHT22;146;53.448;10.228;2023-06-26T13:29:41;23.00;1.00
318;DHT22;146;53.448;10.228;2023-06-26T13:32:11;23.00;1.00
318;DHT22;146;53.448;10.228;2023-06-26T13:34:40;23.00;1.00
318;DHT22;146;53.448;10.228;2023-06-26T13:37:08;23.00;1.00
318;DHT22;146;53.448;10.228;2023-06-26T13:39:35;23.10;1.00
318;DHT22;146;53.448;10.228;2023-06-26T13:42:07;23.10;1.00
318;DHT22;146;53.448;10.228;2023-06-26T13:44:39;23.10;1.00
318;DHT22;146;53.448;10.228;2023-06-26T13:47:06;23.10;1.00
318;DHT22;146;53.448;10.228;2023-06-26T13:49:33;23.10;1.00
318;DHT22;146;53.448;10.228;2023-06-26T13:52:00;23.10;1.00
318;DHT22;146;53.448;10.228;2023-06-26T13:54:27;23.10;1.00
318;DHT22;146;53.448;10.228;2023-06-26T13:57:07;23.20;1.00
318;DHT22;146;53.448;10.228;2023-06-26T13:59:36;23.40;1.00
318;DHT22;146;53.448;10.228;2023-06-26T14:02:05;23.40;1.00
318;DHT22;146;53.448;10.228;2023-06-26T14:04:32;23.40;1.00
318;DHT22;146;53.448;10.228;2023-06-26T14:06:59;23.30;1.00
318;DHT22;146;53.448;10.228;2023-06-26T14:09:26;23.30;1.00
318;DHT22;146;53.448;10.228;2023-06-26T14:11:55;23.30;1.00
318;DHT22;146;53.448;10.228;2023-06-26T14:14:22;23.20;1.00
318;DHT22;146;53.448;10.228;2023-06-26T14:16:55;23.10;1.00
318;DHT22;146;53.448;10.228;2023-06-26T14:19:29;23.00;1.00
318;DHT22;146;53.448;10.228;2023-06-26T14:21:56;23.00;1.00
318;DHT22;146;53.448;10.228;2023-06-26T14:24:22;23.00;1.00
318;DHT22;146;53.448;10.228;2023-06-26T14:26:49;23.20;1.00
318;DHT22;146;53.448;10.228;2023-06-26T14:29:24;23.20;1.00
318;DHT22;146;53.448;10.228;2023-06-26T14:31:57;23.20;1.00
318;DHT22;146;53.448;10.228;2023-06-26T14:34:24;23.10;1.00
318;DHT22;146;53.448;10.228;2023-06-26T14:36:52;23.10;1.00
318;DHT22;146;53.448;10.228;2023-06-26T14:39:19;23.10;1.00
318;DHT22;146;53.448;10.228;2023-06-26T14:41:48;23.20;1.00
318;DHT22;146;53.448;10.228;2023-06-26T14:44:17;23.30;1.00
318;DHT22;146;53.448;10.228;2023-06-26T14:46:50;23.20;1.00
318;DHT22;146;53.448;10.228;2023-06-26T14:49:17;23.20;1.00
318;DHT22;146;53.448;10.228;2023-06-26T14:51:55;23.20;1.00
318;DHT22;146;53.448;10.228;2023-06-26T14:54:22;23.10;1.00
318;DHT22;146;53.448;10.228;2023-06-26T14:56:52;23.00;1.00
318;DHT22;146;53.448;10.228;2023-06-26T14:59:19;22.90;1.00
318;DHT22;146;53.448;10.228;2023-06-26T15:01:49;22.90;1.00
318;DHT22;146;53.448;10.228;2023-06-26T15:04:21;22.90;1.00
318;DHT22;146;53.448;10.228;2023-06-26T15:06:50;22.80;1.00
318;DHT22;146;53.448;10.228;2023-06-26T15:09:18;22.80;1.00
318;DHT22;146;53.448;10.228;2023-06-26T15:11:48;22.70;1.00
318;DHT22;146;53.448;10.228;2023-06-26T15:14:23;22.60;1.00
318;DHT22;146;53.448;10.228;2023-06-26T15:16:50;22.50;1.00
318;DHT22;146;53.448;10.228;2023-06-26T15:19:24;22.60;1.00
318;DHT22;146;53.448;10.228;2023-06-26T15:21:57;22.60;1.00
318;DHT22;146;53.448;10.228;2023-06-26T15:24:28;22.70;1.00
318;DHT22;146;53.448;10.228;2023-06-26T15:26:58;22.80;1.00
318;DHT22;146;53.448;10.228;2023-06-26T15:29:27;22.80;1.00
318;DHT22;146;53.448;10.228;2023-06-26T15:31:54;22.90;1.00
318;DHT22;146;53.448;10.228;2023-06-26T15:34:29;22.90;1.00
318;DHT22;146;53.448;10.228;2023-06-26T15:36:58;22.80;1.00
318;DHT22;146;53.448;10.228;2023-06-26T15:39:25;22.70;1.00
318;DHT22;146;53.448;10.228;2023-06-26T15:41:58;22.60;1.00
318;DHT22;146;53.448;10.228;2023-06-26T15:44:25;22.50;1.00
318;DHT22;146;53.448;10.228;2023-06-26T15:46:52;22.40;1.00
318;DHT22;146;53.448;10.228;2023-06-26T15:49:28;22.40;1.00
318;DHT22;146;53.448;10.228;2023-06-26T15:51:55;22.20;1.00
318;DHT22;146;53.448;10.228;2023-06-26T15:54:25;22.20;1.00
318;DHT22;146;53.448;10.228;2023-06-26T15:56:55;22.30;1.00
318;DHT22;146;53.448;10.228;2023-06-26T15:59:26;22.30;1.00
318;DHT22;146;53.448;10.228;2023-06-26T16:02:02;22.30;1.00
318;DHT22;146;53.448;10.228;2023-06-26T16:04:29;22.40;1.00
318;DHT22;146;53.448;10.228;2023-06-26T16:06:58;22.40;1.00
318;DHT22;146;53.448;10.228;2023-06-26T16:09:27;22.30;1.00
318;DHT22;146;53.448;10.228;2023-06-26T16:11:57;22.20;1.00
318;DHT22;146;53.448;10.228;2023-06-26T16:14:30;22.10;1.00
318;DHT22;146;53.448;10.228;2023-06-26T16:16:57;22.00;1.00
318;DHT22;146;53.448;10.228;2023-06-26T16:19:27;21.90;1.00
318;DHT22;146;53.448;10.228;2023-06-26T16:21:54;21.70;1.00
318;DHT22;146;53.448;10.228;2023-06-26T16:24:24;21.70;1.00
318;DHT22;146;53.448;10.228;2023-06-26T16:26:55;21.70;1.00
318;DHT22;146;53.448;10.228;2023-06-26T16:29:28;21.50;1.00
318;DHT22;146;53.448;10.228;2023-06-26T16:32:00;21.50;1.00
318;DHT22;146;53.448;10.228;2023-06-26T16:34:27;21.40;1.00
318;DHT22;146;53.448;10.228;2023-06-26T16:36:57;21.40;1.00
318;DHT22;146;53.448;10.228;2023-06-26T16:39:25;21.40;1.00
318;DHT22;146;53.448;10.228;2023-06-26T16:41:58;21.50;1.00
318;DHT22;146;53.448;10.228;2023-06-26T16:44:25;21.50;1.00
318;DHT22;146;53.448;10.228;2023-06-26T16:46:59;21.50;1.00
318;DHT22;146;53.448;10.228;2023-06-26T16:49:27;21.40;1.00
318;DHT22;146;53.448;10.228;2023-06-26T16:51:54;21.40;1.00
318;DHT22;146;53.448;10.228;2023-06-26T16:54:25;21.40;1.00
318;DHT22;146;53.448;10.228;2023-06-26T16:56:55;21.40;1.00
318;DHT22;146;53.448;10.228;2023-06-26T16:59:29;21.40;1.00
318;DHT22;146;53.448;10.228;2023-06-26T17:02:00;21.40;1.00